Aircraft
UPR1019 PT-QAH TBM 850
SBAR
Aracaju - Santa Maria International Airport
SBIL
Bahia - Jorge Amado Airport
Pilot:: Rafael
Aircraft:: Black Square TBM 850 UP
Alternate: SBSV
Network: ivao
FLIGHT DETAILS
Distance: 257nm Duration 01h 06m
Cruise Speed: Flight Level: 24000
Validation: Validated Type Charter
Flight Fuel
ZFW: 2643
Block Fuel/Initial FOB: 495
Flight Fuel: 214
Cargo
Passengers: 5
Cargo: 85
ROUTE
ROUTE: GATU2A ARURU Z35 SVD OSENI
REMARKS:
DATE
Date: 26-05-06
Departure Time: 2204
Cargo: 85
FLIGHT DETAILS
Crashed: No
Validator Comments: Validado por Claudenir
Flight Rating: 98
LANDING ANALYSIS
Landing wind: 280º/8 kt
Landing heading: 294º
Landing VS:: -94 ft/min
Landing IAS:: 87 kt
Landing Force G: 1.1 G
Landing Bank: 1
Landing Pitch: -2
Landing Flaps: 100
Navigation Lights: OFF
Landing Lights: ON
Beacon Lights: OFF
Strobe Lights: ON
viserfly

ALTITUDE CHART

viserfly

MAIN EVENTS

DATE EVENT IAS ALTITUDE
2026-05-06 21:52:10 FLYacars version 1.3.5 5 36
2026-05-06 21:52:10 Starting Engine 1 5 36
2026-05-06 21:54:08 Aircraft boarding in progress 5 36
2026-05-06 21:54:08 Navigation Lights ON 5 36
2026-05-06 21:54:36 Engine 1 shutdown 5 36
2026-05-06 21:54:36 Starting Engine 1 5 36
2026-05-06 21:54:36 Engine 1 shutdown 5 36
2026-05-06 21:54:36 Starting Engine 1 5 36
2026-05-06 21:54:36 Engine 1 shutdown 5 36
2026-05-06 21:54:36 Starting Engine 1 5 36
2026-05-06 21:54:36 Engine 1 shutdown 5 36
2026-05-06 21:54:36 Starting Engine 1 5 36
2026-05-06 21:55:38 FLAPS 50% 5 36
2026-05-06 21:58:35 Taxi Lights ON 5 36
2026-05-06 22:00:09 Aircraft taxiing to runway 0 36
2026-05-06 22:01:06 Strobe Lights ON 0 36
2026-05-06 22:01:07 Landing Lights ON 0 36
2026-05-06 22:04:28 Detected Take-off roll, HDG 117, IAS 105kt, GS 97kt, G-force 1.1g, Pitch -4.2deg, Bank 0.6deg, Wind 092/13kt, Temp 28°C 105 35
2026-05-06 22:04:28 Airborne 105 35
2026-05-06 22:04:28 Beacon lights OFF and engines ON 105 35
2026-05-06 22:04:31 Gear UP, IAS 105kt, GS 100kt, ALT 32ft AGL 105 62
2026-05-06 22:05:51 FLAPS 0% 138kt, ALT 2074ft 138 2074
2026-05-06 22:10:25 Landing Lights OFF 137 10512
2026-05-06 22:10:26 Taxi Lights OFF 137 10543
2026-05-06 22:21:46 Aircraft on Top Of Climb at 24920ft, IAS 139kt, GS 204kt, HDG 244deg, TAT -18deg, WIND 259/11kt 139 24920
2026-05-06 22:50:48 Aircraft on Top Of Descent at 23499ft, IAS 226kt, GS 327kt, HDG 214deg, TAT -15deg, WIND 256/12kt 226 23499
2026-05-06 23:00:02 Landing lights OFF below 10000fts 239 8999
2026-05-06 23:00:28 Landing Lights ON 238 8336
2026-05-06 23:00:29 Taxi Lights ON 238 8311
2026-05-06 23:05:44 Gear DOWN, IAS 174kt, GS 182kt, ALT 2783ft AGL 174 2783
2026-05-06 23:05:45 FLAPS 50% 174kt, ALT 2782ft 174 2782
2026-05-06 23:07:10 FLAPS 100% 121kt, ALT 1887ft 121 1887
2026-05-06 23:10:26 Landed at destination with a landing rate of -94fpm, G-force 1.1g, Pitch -1.8deg, Bank 1.1deg, HDG 294deg, IAS 87kt, GS 83kt, Wind 280/08kt, Temp 23°C 87 14
2026-05-06 23:10:44 Aircraft taxiing to apron 34 17
2026-05-06 23:11:01 FLAPS 50% 18 17
2026-05-06 23:11:01 FLAPS 0% 17 17
2026-05-06 23:11:35 Strobe Lights OFF 20 13
2026-05-06 23:11:36 Landing Lights OFF 22 14
2026-05-06 23:12:43 Taxi Lights OFF 1 14
2026-05-06 23:13:48 Simulator Paused 1 14
2026-05-06 23:13:48 Simulator Un-Paused 1 14
2026-05-06 23:14:15 Navigation Lights OFF 1 14
2026-05-06 23:14:56 Aircraft at gate/stand, ground services are moving into position, disembarkation has begun. Remaining FOB 281kg FLYacars v1.3.5 1 14
viserfly

ACARS DATA

DATE IAS GS ALTITUDE FUEL CONSUMED OAT FLIGHT STATUS
2026-05-06 21:52:40 5 0 36 0 25 BOARDING
2026-05-06 21:53:10 5 0 36 0 25 BOARDING
2026-05-06 21:53:40 5 0 36 0 25 BOARDING
2026-05-06 21:54:10 5 0 36 0 25 BOARDING
2026-05-06 21:54:40 5 0 36 0 25 BOARDING
2026-05-06 21:55:10 5 0 36 0 25 BOARDING
2026-05-06 21:55:40 5 0 36 1 25 BOARDING
2026-05-06 21:56:10 5 0 36 2 25 BOARDING
2026-05-06 21:56:40 5 0 36 2 25 BOARDING
2026-05-06 21:57:10 5 0 36 3 25 BOARDING
2026-05-06 21:57:40 5 0 36 4 25 BOARDING
2026-05-06 21:58:10 5 0 36 5 25 BOARDING
2026-05-06 21:58:40 5 0 36 5 25 BOARDING
2026-05-06 21:59:10 5 0 36 6 25 BOARDING
2026-05-06 21:59:40 5 0 36 7 25 BOARDING
2026-05-06 22:00:10 0 7 36 7 25 TAXI TO RUNWAY
2026-05-06 22:00:40 0 7 36 8 25 TAXI TO RUNWAY
2026-05-06 22:01:10 0 5 36 9 25 TAXI TO RUNWAY
2026-05-06 22:01:40 0 10 36 10 25 TAXI TO RUNWAY
2026-05-06 22:02:10 0 10 37 10 25 TAXI TO RUNWAY
2026-05-06 22:02:40 0 12 38 11 25 TAXI TO RUNWAY
2026-05-06 22:03:10 15 3 38 12 25 TAXI TO RUNWAY
2026-05-06 22:03:40 16 0 38 13 25 TAXI TO RUNWAY
2026-05-06 22:04:10 51 37 38 14 25 TAXI TO RUNWAY
2026-05-06 22:04:40 114 108 208 15 27 TAKEOFF
2026-05-06 22:05:10 139 135 971 17 23 TAKEOFF
2026-05-06 22:05:40 137 138 1752 19 21 INITIAL CLIMB
2026-05-06 22:06:10 137 137 2643 20 20 CLIMB
2026-05-06 22:06:40 138 139 3600 22 19 CLIMB
2026-05-06 22:07:10 137 140 4619 24 17 CLIMB
2026-05-06 22:07:40 138 142 5597 25 16 CLIMB
2026-05-06 22:08:10 137 143 6555 27 14 CLIMB
2026-05-06 22:08:40 137 147 7465 29 13 CLIMB
2026-05-06 22:09:10 137 149 8377 31 11 CLIMB
2026-05-06 22:09:40 137 152 9246 32 10 CLIMB
2026-05-06 22:10:10 137 168 10073 34 9 CLIMB
2026-05-06 22:10:40 137 170 10916 36 7 CLIMB
2026-05-06 22:11:10 137 171 11760 37 6 CLIMB
2026-05-06 22:11:40 137 172 12584 39 4 CLIMB
2026-05-06 22:12:10 137 173 13387 40 3 CLIMB
2026-05-06 22:12:40 137 174 14168 42 1 CLIMB
2026-05-06 22:13:10 137 174 14925 44 0 CLIMB
2026-05-06 22:13:40 137 176 15647 45 0 CLIMB
2026-05-06 22:14:10 137 177 16357 47 -1 CLIMB
2026-05-06 22:14:40 137 179 17047 48 -2 CLIMB
2026-05-06 22:15:10 137 180 17714 50 -2 CLIMB
2026-05-06 22:15:40 137 182 18364 52 -3 CLIMB
2026-05-06 22:16:10 137 184 18981 53 -4 CLIMB
2026-05-06 22:16:40 137 186 19587 55 -6 CLIMB
2026-05-06 22:17:10 137 188 20181 56 -7 CLIMB
2026-05-06 22:17:40 137 189 20760 58 -9 CLIMB
2026-05-06 22:18:10 137 191 21324 59 -10 CLIMB
2026-05-06 22:18:40 137 192 21875 61 -11 CLIMB
2026-05-06 22:19:10 137 194 22414 63 -12 CLIMB
2026-05-06 22:19:40 138 195 22939 64 -14 CLIMB
2026-05-06 22:20:10 137 196 23450 66 -15 CLIMB
2026-05-06 22:20:40 137 198 23930 67 -16 CLIMB
2026-05-06 22:21:10 137 200 24401 69 -17 CLIMB
2026-05-06 22:21:40 137 201 24860 70 -18 CLIMB
2026-05-06 22:22:10 151 222 24938 72 -18 ENROUTE
2026-05-06 22:22:40 165 243 24946 73 -18 ENROUTE
2026-05-06 22:23:10 176 259 24943 75 -18 ENROUTE
2026-05-06 22:23:40 184 271 24946 76 -18 ENROUTE
2026-05-06 22:24:10 190 280 24944 78 -18 ENROUTE
2026-05-06 22:24:40 194 286 24944 79 -18 ENROUTE
2026-05-06 22:25:10 197 291 24944 81 -18 ENROUTE
2026-05-06 22:25:40 199 294 24944 83 -18 ENROUTE
2026-05-06 22:26:10 201 296 24945 84 -18 ENROUTE
2026-05-06 22:26:40 201 297 24944 86 -18 ENROUTE
2026-05-06 22:27:10 203 298 24946 87 -18 ENROUTE
2026-05-06 22:27:40 202 300 24949 89 -18 ENROUTE
2026-05-06 22:28:10 203 300 24946 90 -18 ENROUTE
2026-05-06 22:28:40 203 300 24946 92 -18 ENROUTE
2026-05-06 22:29:10 203 301 24946 93 -18 ENROUTE
2026-05-06 22:29:40 203 301 24947 95 -18 ENROUTE
2026-05-06 22:30:10 203 301 24947 96 -18 ENROUTE
2026-05-06 22:30:40 203 301 24947 98 -18 ENROUTE
2026-05-06 22:31:10 203 301 24947 99 -18 ENROUTE
2026-05-06 22:31:40 203 301 24947 101 -18 ENROUTE
2026-05-06 22:32:10 203 301 24946 103 -18 ENROUTE
2026-05-06 22:32:40 203 301 24946 104 -18 ENROUTE
2026-05-06 22:33:10 203 301 24945 106 -18 ENROUTE
2026-05-06 22:33:40 203 301 24945 107 -18 ENROUTE
2026-05-06 22:34:10 203 301 24940 109 -18 ENROUTE
2026-05-06 22:34:40 203 301 24932 110 -18 ENROUTE
2026-05-06 22:35:10 204 301 24921 112 -18 ENROUTE
2026-05-06 22:35:40 203 301 24919 113 -18 ENROUTE
2026-05-06 22:36:10 203 301 24916 115 -18 ENROUTE
2026-05-06 22:36:40 203 301 24907 116 -18 ENROUTE
2026-05-06 22:37:10 204 301 24906 118 -18 ENROUTE
2026-05-06 22:37:40 203 301 24900 119 -18 ENROUTE
2026-05-06 22:38:10 204 301 24897 121 -18 ENROUTE
2026-05-06 22:38:40 204 301 24893 122 -18 ENROUTE
2026-05-06 22:39:10 204 301 24892 124 -18 ENROUTE
2026-05-06 22:39:40 204 301 24886 126 -18 ENROUTE
2026-05-06 22:40:10 204 301 24882 127 -18 ENROUTE
2026-05-06 22:40:40 204 301 24880 129 -18 ENROUTE
2026-05-06 22:41:10 204 302 24876 130 -18 ENROUTE
2026-05-06 22:41:40 204 304 24872 132 -18 ENROUTE
2026-05-06 22:42:10 204 304 24868 133 -18 ENROUTE
2026-05-06 22:42:40 204 304 24863 135 -18 ENROUTE
2026-05-06 22:43:10 204 304 24858 136 -18 ENROUTE
2026-05-06 22:43:40 204 304 24855 138 -18 ENROUTE
2026-05-06 22:44:10 204 304 24855 139 -18 ENROUTE
2026-05-06 22:44:40 204 304 24854 141 -18 ENROUTE
2026-05-06 22:45:10 204 304 24852 142 -18 ENROUTE
2026-05-06 22:45:40 204 304 24852 144 -18 ENROUTE
2026-05-06 22:46:10 204 305 24849 145 -18 ENROUTE
2026-05-06 22:46:40 204 305 24847 147 -18 ENROUTE
2026-05-06 22:47:10 204 305 24846 149 -18 ENROUTE
2026-05-06 22:47:40 204 305 24846 150 -18 ENROUTE
2026-05-06 22:48:10 204 305 24844 152 -18 ENROUTE
2026-05-06 22:48:40 204 305 24844 153 -18 ENROUTE
2026-05-06 22:49:10 204 305 24842 155 -18 ENROUTE
2026-05-06 22:49:40 204 305 24840 156 -18 ENROUTE
2026-05-06 22:50:10 211 314 24449 158 -17 DESCENT
2026-05-06 22:50:40 223 325 23711 159 -15 DESCENT
2026-05-06 22:51:10 230 330 22973 160 -14 DESCENT
2026-05-06 22:51:40 234 331 22213 162 -12 DESCENT
2026-05-06 22:52:10 237 330 21420 163 -11 DESCENT
2026-05-06 22:52:40 239 327 20623 165 -9 DESCENT
2026-05-06 22:53:10 239 323 19818 166 -7 DESCENT
2026-05-06 22:53:40 239 319 19020 167 -6 DESCENT
2026-05-06 22:54:10 239 316 18222 169 -4 DESCENT
2026-05-06 22:54:40 237 314 17423 170 -2 DESCENT
2026-05-06 22:55:10 237 312 16629 172 -1 DESCENT
2026-05-06 22:55:40 237 311 15829 173 0 DESCENT
2026-05-06 22:56:10 237 310 15031 174 2 DESCENT
2026-05-06 22:56:40 237 310 14231 176 3 DESCENT
2026-05-06 22:57:10 239 308 13433 177 4 DESCENT
2026-05-06 22:57:40 239 304 12636 179 5 DESCENT
2026-05-06 22:58:10 239 301 11838 180 6 DESCENT
2026-05-06 22:58:40 239 297 11046 182 7 DESCENT
2026-05-06 22:59:10 238 293 10297 183 8 DESCENT
2026-05-06 22:59:40 239 289 9549 185 9 DESCENT
2026-05-06 23:00:10 239 284 8799 186 10 DESCENT
2026-05-06 23:00:40 239 279 8051 188 11 DESCENT
2026-05-06 23:01:10 238 274 7302 189 12 DESCENT
2026-05-06 23:01:40 237 269 6553 191 14 DESCENT
2026-05-06 23:02:10 238 264 5805 192 15 DESCENT
2026-05-06 23:02:40 220 239 5047 194 16 DESCENT
2026-05-06 23:03:10 214 230 4294 195 17 DESCENT
2026-05-06 23:03:40 195 209 4125 196 18 ENROUTE
2026-05-06 23:04:10 186 199 4116 197 18 ENROUTE
2026-05-06 23:04:40 194 200 3593 199 18 DESCENT
2026-05-06 23:05:10 192 196 3094 200 19 DESCENT
2026-05-06 23:05:40 175 182 2787 201 20 ENROUTE
2026-05-06 23:06:10 147 164 2707 202 20 DESCENT
2026-05-06 23:06:40 140 156 2293 203 21 APPROACH
2026-05-06 23:07:10 122 136 1896 204 21 APPROACH
2026-05-06 23:07:40 109 119 1576 205 22 APPROACH
2026-05-06 23:08:10 106 118 1261 206 22 APPROACH
2026-05-06 23:08:40 109 118 950 207 23 ON FINAL
2026-05-06 23:09:10 109 111 633 209 23 ON FINAL
2026-05-06 23:09:40 108 106 358 210 23 ON FINAL
2026-05-06 23:10:10 106 104 58 211 23 ON FINAL
2026-05-06 23:10:40 49 43 17 212 23 ON FINAL
2026-05-06 23:11:10 28 35 16 213 23 TAXI TO APRON
2026-05-06 23:11:40 17 14 14 213 23 TAXI TO APRON
2026-05-06 23:12:10 4 3 14 214 24 TAXI TO APRON
2026-05-06 23:12:40 1 0 14 214 24 TAXI TO APRON
2026-05-06 23:13:10 1 0 14 214 24 TAXI TO APRON
2026-05-06 23:13:40 1 0 14 214 24 TAXI TO APRON
2026-05-06 23:14:10 1 0 14 214 24 TAXI TO APRON
2026-05-06 23:14:40 1 0 14 214 24 TAXI TO APRON
  • Join our VA!

    It has been 11 years of great learning, friendships, and stories.

  • Sign up now!